createdAt,value
2018-12-07T00:00:59.990Z,1003.72
2018-12-07T00:02:09.873Z,1003.71
2018-12-07T00:03:19.932Z,1003.7
2018-12-07T00:04:29.733Z,1003.73
2018-12-07T00:05:39.814Z,1003.7
2018-12-07T00:06:49.891Z,1003.63
2018-12-07T00:07:59.718Z,1003.62
2018-12-07T00:09:10.581Z,1003.64
2018-12-07T00:10:20.665Z,1003.61
2018-12-07T00:11:30.769Z,1003.64
2018-12-07T00:12:40.958Z,1003.63
2018-12-07T00:13:51.077Z,1003.61
2018-12-07T00:15:00.873Z,1003.66
2018-12-07T00:16:10.668Z,1003.65
2018-12-07T00:17:20.725Z,1003.62
2018-12-07T00:18:31.704Z,1003.56
2018-12-07T00:19:47.814Z,1003.51
2018-12-07T00:20:58.218Z,1003.49
2018-12-07T00:22:08.028Z,1003.46
2018-12-07T00:23:18.101Z,1003.42
2018-12-07T00:24:28.178Z,1003.45
2018-12-07T00:25:38.221Z,1003.44
2018-12-07T00:26:48.024Z,1003.4
2018-12-07T00:27:58.074Z,1003.43
2018-12-07T00:29:10.500Z,1003.46
2018-12-07T00:30:20.600Z,1003.49
2018-12-07T00:31:30.665Z,1003.52
2018-12-07T00:32:40.738Z,1003.45
2018-12-07T00:33:50.803Z,1003.39
2018-12-07T00:35:01.250Z,1003.42
2018-12-07T00:36:11.356Z,1003.44
2018-12-07T00:37:21.409Z,1003.45
2018-12-07T00:38:31.443Z,1003.44
2018-12-07T00:39:41.497Z,1003.45
2018-12-07T00:40:51.058Z,1003.43
2018-12-07T00:42:01.203Z,1003.41
2018-12-07T00:43:11.273Z,1003.48
2018-12-07T00:44:21.113Z,1003.4
2018-12-07T00:45:31.175Z,1003.48
2018-12-07T00:46:41.014Z,1003.5
2018-12-07T00:47:50.820Z,1003.5
2018-12-07T00:49:00.901Z,1003.47
2018-12-07T00:50:10.710Z,1003.44
2018-12-07T00:51:20.820Z,1003.5
2018-12-07T00:52:30.643Z,1003.49
2018-12-07T00:53:40.711Z,1003.48
2018-12-07T00:54:50.511Z,1003.49
2018-12-07T00:56:00.579Z,1003.48
2018-12-07T00:57:10.410Z,1003.53
2018-12-07T00:58:20.255Z,1003.51
2018-12-07T00:59:30.333Z,1003.5
2018-12-07T01:00:40.135Z,1003.47
2018-12-07T01:01:50.194Z,1003.44
2018-12-07T01:02:59.990Z,1003.46
2018-12-07T01:04:10.088Z,1003.44
2018-12-07T01:05:20.219Z,1003.38
2018-12-07T01:06:30.040Z,1003.37
2018-12-07T01:07:40.119Z,1003.33
2018-12-07T01:08:50.202Z,1003.31
2018-12-07T01:10:00.093Z,1003.29
2018-12-07T01:11:10.167Z,1003.24
2018-12-07T01:12:20.230Z,1003.23
2018-12-07T01:13:30.114Z,1003.19
2018-12-07T01:14:40.180Z,1003.16
2018-12-07T01:15:50.037Z,1003.12
2018-12-07T01:17:00.103Z,1003.13
2018-12-07T01:18:09.915Z,1003.16
2018-12-07T01:19:20.077Z,1003.1
2018-12-07T01:20:30.158Z,1003.09
2018-12-07T01:21:40.302Z,1003.1
2018-12-07T01:22:50.389Z,1003.08
2018-12-07T01:24:00.430Z,1003.14
2018-12-07T01:25:10.489Z,1003.19
2018-12-07T01:26:20.578Z,1003.16
2018-12-07T01:27:31.233Z,1003.19
2018-12-07T01:28:41.048Z,1003.28
2018-12-07T01:29:51.094Z,1003.27
2018-12-07T01:31:04.484Z,1003.28
2018-12-07T01:32:14.295Z,1003.28
2018-12-07T01:33:24.457Z,1003.3
2018-12-07T01:34:34.519Z,1003.31
2018-12-07T01:35:44.578Z,1003.39
2018-12-07T01:36:54.657Z,1003.35
2018-12-07T01:38:04.714Z,1003.34
2018-12-07T01:39:14.813Z,1003.29
2018-12-07T01:40:24.682Z,1003.27
2018-12-07T01:41:34.235Z,1003.29
2018-12-07T01:42:44.296Z,1003.3
2018-12-07T01:43:54.362Z,1003.27
2018-12-07T01:45:04.171Z,1003.28
2018-12-07T01:46:13.968Z,1003.25
2018-12-07T01:47:24.027Z,1003.22
2018-12-07T01:48:34.082Z,1003.19
2018-12-07T01:49:44.138Z,1003.15
2018-12-07T01:50:53.986Z,1003.17
2018-12-07T01:52:03.800Z,1003.19
2018-12-07T01:53:13.871Z,1003.22
2018-12-07T01:54:23.935Z,1003.22
2018-12-07T01:55:33.978Z,1003.2
2018-12-07T01:56:44.039Z,1003.12
2018-12-07T01:57:54.084Z,1003.12
2018-12-07T01:59:03.882Z,1003.14
2018-12-07T02:00:13.683Z,1003.11
2018-12-07T02:01:23.474Z,1003.11
2018-12-07T02:02:33.545Z,1003.04
2018-12-07T02:03:43.592Z,1003.02
2018-12-07T02:04:53.384Z,1002.97
2018-12-07T02:06:03.438Z,1002.94
2018-12-07T02:07:13.237Z,1002.82
2018-12-07T02:08:24.329Z,1002.74
2018-12-07T02:09:34.118Z,1002.74
2018-12-07T02:10:44.165Z,1002.75
2018-12-07T02:11:54.231Z,1002.74
2018-12-07T02:13:04.287Z,1002.77
2018-12-07T02:14:14.087Z,1002.75
2018-12-07T02:15:24.150Z,1002.71
2018-12-07T02:16:34.197Z,1002.79
2018-12-07T02:17:44.265Z,1002.79
2018-12-07T02:18:54.323Z,1002.76
2018-12-07T02:20:04.133Z,1002.75
2018-12-07T02:21:14.188Z,1002.74
2018-12-07T02:22:24.328Z,1002.78
2018-12-07T02:23:34.136Z,1002.72
2018-12-07T02:24:44.194Z,1002.73
2018-12-07T02:25:54.100Z,1002.62
2018-12-07T02:27:03.923Z,1002.67
2018-12-07T02:28:13.735Z,1002.59
2018-12-07T02:29:23.541Z,1002.59
2018-12-07T02:30:33.594Z,1002.59
2018-12-07T02:31:43.710Z,1002.58
2018-12-07T02:32:53.791Z,1002.58
2018-12-07T02:34:03.852Z,1002.53
2018-12-07T02:35:13.916Z,1002.55
2018-12-07T02:36:23.984Z,1002.51
2018-12-07T02:37:34.062Z,1002.48
2018-12-07T02:38:43.606Z,1002.49
2018-12-07T02:39:53.421Z,1002.45
2018-12-07T02:41:05.474Z,1002.47
2018-12-07T02:42:15.557Z,1002.45
2018-12-07T02:43:25.355Z,1002.4
2018-12-07T02:44:35.163Z,1002.49
2018-12-07T02:45:45.234Z,1002.42
2018-12-07T02:46:55.307Z,1002.45
2018-12-07T02:48:05.370Z,1002.58
2018-12-07T02:49:15.442Z,1002.43
2018-12-07T02:50:25.259Z,1002.49
2018-12-07T02:51:35.059Z,1002.39
2018-12-07T02:52:45.114Z,1002.33
2018-12-07T02:53:55.166Z,1002.37
2018-12-07T02:55:05.008Z,1002.36
2018-12-07T02:56:14.808Z,1002.37
2018-12-07T02:57:24.875Z,1002.33
2018-12-07T02:58:34.937Z,1002.32
2018-12-07T02:59:44.983Z,1002.32
2018-12-07T03:00:55.026Z,1002.3
2018-12-07T03:02:05.062Z,1002.26
2018-12-07T03:34:20.132Z,1002.04
2018-12-07T03:35:29.933Z,1002.09
2018-12-07T03:36:40.007Z,1002.09
2018-12-07T03:37:50.062Z,1002.08
2018-12-07T03:39:00.102Z,1002.05
2018-12-07T03:40:11.510Z,1002.05
2018-12-07T03:41:21.562Z,1002.08
2018-12-07T03:42:31.610Z,1002.04
2018-12-07T03:43:41.651Z,1001.97
2018-12-07T03:44:51.716Z,1001.98
2018-12-07T03:46:01.826Z,1002.02
2018-12-07T03:47:11.939Z,1002.03
2018-12-07T03:48:21.755Z,1002.02
2018-12-07T03:49:31.831Z,1002.01
2018-12-07T03:50:41.632Z,1002.1
2018-12-07T03:51:51.737Z,1002.08
2018-12-07T03:53:01.797Z,1002.06
2018-12-07T03:54:11.850Z,1002.04
2018-12-07T03:55:21.931Z,1001.96
2018-12-07T03:56:31.999Z,1002.04
2018-12-07T03:57:41.861Z,1002.04
2018-12-07T03:58:51.900Z,1002.07
2018-12-07T04:00:02.091Z,1002.03
2018-12-07T04:01:12.165Z,1002.01
2018-12-07T04:02:22.070Z,1002.04
2018-12-07T04:03:32.185Z,1002.02
2018-12-07T04:04:42.470Z,1002.03
2018-12-07T04:05:52.287Z,1002.06
2018-12-07T04:07:02.479Z,1002.03
2018-12-07T04:08:12.265Z,1002.04
2018-12-07T04:09:22.348Z,1002.03
2018-12-07T04:10:32.414Z,1001.99
2018-12-07T04:11:42.467Z,1001.97
2018-12-07T04:12:52.259Z,1001.93
2018-12-07T04:14:02.849Z,1001.89
2018-12-07T04:15:12.916Z,1001.89
2018-12-07T04:16:22.978Z,1001.92
2018-12-07T04:17:33.139Z,1001.87
2018-12-07T04:18:43.207Z,1001.84
2018-12-07T04:19:53.257Z,1001.85
2018-12-07T04:21:06.313Z,1001.8
2018-12-07T04:22:16.379Z,1001.8
2018-12-07T04:23:26.184Z,1001.8
2018-12-07T04:24:35.784Z,1001.8
2018-12-07T04:25:45.868Z,1001.81
2018-12-07T04:26:56.071Z,1001.73
2018-12-07T04:28:06.420Z,1001.76
2018-12-07T04:29:16.477Z,1001.73
2018-12-07T04:30:26.545Z,1001.67
2018-12-07T04:31:36.687Z,1001.63
2018-12-07T04:32:46.491Z,1001.65
2018-12-07T04:33:56.594Z,1001.64
2018-12-07T04:35:06.397Z,1001.63
2018-12-07T04:36:16.451Z,1001.61
2018-12-07T04:37:26.639Z,1001.69
2018-12-07T04:38:36.749Z,1001.65
2018-12-07T04:39:46.822Z,1001.59
2018-12-07T04:40:56.885Z,1001.6
2018-12-07T04:42:06.948Z,1001.6
2018-12-07T04:43:16.496Z,1001.57
2018-12-07T04:44:26.570Z,1001.55
2018-12-07T04:45:36.622Z,1001.47
2018-12-07T04:46:46.702Z,1001.4
2018-12-07T04:47:56.856Z,1001.38
2018-12-07T04:49:07.764Z,1001.42
2018-12-07T04:50:17.809Z,1001.43
2018-12-07T04:51:27.715Z,1001.44
2018-12-07T04:52:37.819Z,1001.44
2018-12-07T04:53:47.611Z,1001.43
2018-12-07T04:54:57.676Z,1001.43
2018-12-07T04:56:07.753Z,1001.4
2018-12-07T04:57:17.819Z,1001.43
2018-12-07T04:58:27.917Z,1001.4
2018-12-07T04:59:37.728Z,1001.38
2018-12-07T05:00:47.806Z,1001.4
2018-12-07T05:01:57.863Z,1001.36
2018-12-07T05:03:08.948Z,1001.36
2018-12-07T05:04:19.026Z,1001.27
2018-12-07T05:05:29.090Z,1001.3
2018-12-07T05:06:39.143Z,1001.27
2018-12-07T05:07:49.252Z,1001.26
2018-12-07T05:08:59.328Z,1001.28
2018-12-07T05:10:09.394Z,1001.26
2018-12-07T05:11:19.221Z,1001.24
2018-12-07T05:12:29.037Z,1001.25
2018-12-07T05:13:39.139Z,1001.24
2018-12-07T05:14:48.969Z,1001.18
2018-12-07T05:15:59.048Z,1001.07
2018-12-07T05:17:10.640Z,1001.12
2018-12-07T05:18:20.491Z,1001.19
2018-12-07T05:19:30.034Z,1001.16
2018-12-07T05:20:39.950Z,1001.13
2018-12-07T05:21:49.762Z,1001.15
2018-12-07T05:22:59.832Z,1001.14
2018-12-07T05:24:09.904Z,1001.18
2018-12-07T05:25:19.972Z,1001.19
2018-12-07T05:26:30.037Z,1001
2018-12-07T05:27:39.865Z,1001.06
2018-12-07T05:28:49.944Z,1001.09
2018-12-07T05:30:00.031Z,1001.02
2018-12-07T05:31:10.857Z,1000.99
2018-12-07T05:32:20.942Z,1001.02
2018-12-07T05:33:31.000Z,1000.98
2018-12-07T05:34:40.921Z,1000.93
2018-12-07T05:35:50.726Z,1000.86
2018-12-07T05:37:00.543Z,1000.9
2018-12-07T05:38:10.625Z,1000.79
2018-12-07T05:39:20.731Z,1000.8
2018-12-07T05:40:31.031Z,1000.78
2018-12-07T05:41:41.138Z,1000.78
2018-12-07T05:42:51.239Z,1000.85
2018-12-07T05:44:01.323Z,1000.82
2018-12-07T05:45:11.398Z,1000.82
2018-12-07T05:46:21.445Z,1000.84
2018-12-07T05:47:31.533Z,1000.88
2018-12-07T05:48:41.705Z,1000.78
2018-12-07T05:49:51.750Z,1000.82
2018-12-07T05:51:01.819Z,1000.78
2018-12-07T05:52:11.622Z,1000.76
2018-12-07T05:53:21.678Z,1000.81
2018-12-07T05:54:31.729Z,1000.74
2018-12-07T05:55:41.786Z,1000.72
2018-12-07T05:56:51.604Z,1000.8
2018-12-07T05:58:01.532Z,1000.72
2018-12-07T05:59:11.596Z,1000.78
2018-12-07T06:00:21.388Z,1000.73
2018-12-07T06:01:31.455Z,1000.73
2018-12-07T06:02:41.513Z,1000.67
2018-12-07T06:03:51.586Z,1000.65
2018-12-07T06:05:01.687Z,1000.63
2018-12-07T06:06:11.745Z,1000.64
2018-12-07T06:07:21.793Z,1000.77
2018-12-07T06:08:31.840Z,1000.63
2018-12-07T06:09:41.653Z,1000.72
2018-12-07T06:10:51.259Z,1000.72
2018-12-07T06:12:02.309Z,1000.85
2018-12-07T06:13:12.369Z,1000.77
2018-12-07T06:14:22.432Z,1000.76
2018-12-07T06:15:32.506Z,1000.71
2018-12-07T06:16:42.572Z,1000.71
2018-12-07T06:17:52.642Z,1000.64
2018-12-07T06:19:02.697Z,1000.68
2018-12-07T06:20:12.781Z,1000.68
2018-12-07T06:21:22.586Z,1000.62
2018-12-07T06:22:32.641Z,1000.62
2018-12-07T06:23:42.717Z,1000.68
2018-12-07T06:24:52.535Z,1000.63
2018-12-07T06:26:02.591Z,1000.6
2018-12-07T06:27:12.662Z,1000.59
2018-12-07T06:28:22.582Z,1000.57
2018-12-07T06:29:32.397Z,1000.61
2018-12-07T06:30:42.224Z,1000.51
2018-12-07T06:31:52.280Z,1000.5
2018-12-07T06:33:02.106Z,1000.53
2018-12-07T06:34:12.217Z,1000.58
2018-12-07T06:35:22.278Z,1000.56
2018-12-07T06:36:32.344Z,1000.56
2018-12-07T06:37:42.396Z,1000.61
2018-12-07T06:38:52.459Z,1000.61
2018-12-07T06:40:02.534Z,1000.65
2018-12-07T06:41:12.603Z,1000.66
2018-12-07T06:42:22.654Z,1000.66
2018-12-07T06:43:32.450Z,1000.63
2018-12-07T06:44:42.246Z,1000.62
2018-12-07T06:45:52.296Z,1000.6
2018-12-07T06:47:02.441Z,1000.58
2018-12-07T06:48:12.533Z,1000.5
2018-12-07T06:49:22.595Z,1000.45
2018-12-07T06:50:32.479Z,1000.47
2018-12-07T06:51:42.285Z,1000.48
2018-12-07T06:52:52.349Z,1000.47
2018-12-07T06:54:02.410Z,1000.48
2018-12-07T06:55:12.576Z,1000.53
2018-12-07T06:56:22.408Z,1000.56
2018-12-07T06:57:32.456Z,1000.49
2018-12-07T06:58:42.004Z,1000.47
2018-12-07T06:59:52.082Z,1000.52
2018-12-07T07:01:03.839Z,1000.54
2018-12-07T07:02:14.013Z,1000.55
2018-12-07T07:03:24.081Z,1000.56
2018-12-07T07:04:34.142Z,1000.6
2018-12-07T07:05:43.693Z,1000.56
2018-12-07T07:06:53.740Z,1000.53
2018-12-07T07:08:03.806Z,1000.58
2018-12-07T07:09:13.967Z,1000.52
2018-12-07T07:10:24.026Z,1000.49
2018-12-07T07:11:34.160Z,1000.52
2018-12-07T07:12:44.208Z,1000.47
2018-12-07T07:13:54.278Z,1000.4
2018-12-07T07:15:04.386Z,1000.4
2018-12-07T07:16:14.494Z,1000.39
2018-12-07T07:17:30.995Z,1000.34
2018-12-07T07:18:41.048Z,1000.29
2018-12-07T07:19:51.114Z,1000.26
2018-12-07T07:21:01.186Z,1000.2
2018-12-07T07:22:11.023Z,1000.18
2018-12-07T07:23:21.087Z,1000.13
2018-12-07T07:24:31.161Z,1000.12
2018-12-07T07:25:41.213Z,1000.13
2018-12-07T07:26:51.278Z,1000.15
2018-12-07T07:28:01.744Z,1000.21
2018-12-07T07:29:11.803Z,1000.23
2018-12-07T07:30:21.883Z,1000.24
2018-12-07T07:31:31.946Z,1000.31
2018-12-07T07:32:48.329Z,1000.26
2018-12-07T07:33:58.390Z,1000.35
2018-12-07T07:35:08.188Z,1000.36
2018-12-07T07:36:18.266Z,1000.32
2018-12-07T07:37:28.334Z,1000.35
2018-12-07T07:38:38.391Z,1000.39
2018-12-07T07:39:48.437Z,1000.46
2018-12-07T07:40:58.484Z,1000.47
2018-12-07T07:42:08.711Z,1000.48
2018-12-07T07:43:18.755Z,1000.46
2018-12-07T07:44:28.809Z,1000.42
2018-12-07T07:45:38.350Z,1000.44
2018-12-07T07:46:48.420Z,1000.38
2018-12-07T07:47:58.223Z,1000.27
2018-12-07T07:49:08.271Z,1000.32
2018-12-07T07:50:18.329Z,1000.32
2018-12-07T07:51:28.136Z,1000.17
2018-12-07T07:52:37.939Z,1000.31
2018-12-07T07:53:48.018Z,1000.19
2018-12-07T07:54:58.091Z,1000.18
2018-12-07T07:56:15.092Z,1000.25
2018-12-07T07:57:25.318Z,1000.2
2018-12-07T07:58:35.386Z,1000.22
2018-12-07T07:59:45.188Z,1000.24
2018-12-07T08:00:55.259Z,1000.24
2018-12-07T08:02:05.324Z,1000.19
2018-12-07T08:03:15.138Z,1000.28
2018-12-07T08:04:25.208Z,1000.2
2018-12-07T08:05:35.022Z,1000.17
2018-12-07T08:06:45.138Z,1000.26
2018-12-07T08:07:55.648Z,1000.25
2018-12-07T08:09:05.821Z,1000.23
2018-12-07T08:10:15.627Z,1000.17
2018-12-07T08:11:25.699Z,1000.21
2018-12-07T08:12:35.480Z,1000.2
2018-12-07T08:13:45.094Z,1000.18
2018-12-07T08:14:55.174Z,1000.15
2018-12-07T08:16:05.272Z,1000.18
2018-12-07T08:17:15.348Z,1000.13
2018-12-07T08:18:24.887Z,1000.09
2018-12-07T08:19:34.944Z,1000.12
2018-12-07T08:20:45.159Z,1000.1
2018-12-07T08:21:55.299Z,1000.1
2018-12-07T08:23:05.864Z,1000.09
2018-12-07T08:24:22.291Z,1000.15
2018-12-07T08:25:32.370Z,1000.16
2018-12-07T08:26:42.182Z,1000.13
2018-12-07T08:27:52.331Z,1000.13
2018-12-07T08:29:02.410Z,1000.17
2018-12-07T08:30:12.283Z,1000.14
2018-12-07T08:31:22.090Z,1000.19
2018-12-07T08:32:32.135Z,1000.17
2018-12-07T08:33:42.199Z,1000.16
2018-12-07T08:34:52.251Z,1000.13
2018-12-07T08:36:02.041Z,1000.18
2018-12-07T08:37:12.122Z,1000.16
2018-12-07T08:38:21.912Z,1000.12
2018-12-07T08:39:31.716Z,1000.14
2018-12-07T08:40:41.576Z,1000.15
2018-12-07T08:41:51.636Z,1000.12
2018-12-07T08:43:07.374Z,1000.15
2018-12-07T08:44:17.424Z,1000.13
2018-12-07T08:45:27.240Z,1000.12
2018-12-07T08:46:37.303Z,1000.08
2018-12-07T08:47:47.416Z,1000.12
2018-12-07T08:48:57.519Z,1000.03
2018-12-07T08:50:07.656Z,1000.12
2018-12-07T08:51:17.498Z,1000.17
2018-12-07T08:52:27.595Z,1000.12
2018-12-07T08:53:37.692Z,1000.12
2018-12-07T08:54:47.788Z,1000.13
2018-12-07T08:55:57.690Z,1000.1
2018-12-07T08:57:07.799Z,1000.18
2018-12-07T08:58:17.899Z,1000.21
2018-12-07T08:59:27.997Z,1000.2
2018-12-07T09:00:38.095Z,1000.21
2018-12-07T09:01:48.195Z,1000.15
2018-12-07T09:02:58.365Z,1000.12
2018-12-07T09:04:08.468Z,1000.1
2018-12-07T09:05:18.549Z,1000.09
2018-12-07T09:06:28.660Z,1000.09
2018-12-07T09:07:38.751Z,1000.04
2018-12-07T09:08:48.897Z,999.99
2018-12-07T09:09:58.991Z,999.99
2018-12-07T09:11:09.089Z,999.99
2018-12-07T09:12:19.195Z,999.98
2018-12-07T09:13:29.053Z,999.95
2018-12-07T09:14:39.161Z,999.9
2018-12-07T09:15:49.265Z,999.87
2018-12-07T09:16:59.355Z,999.87
2018-12-07T09:18:09.447Z,999.86
2018-12-07T09:19:19.546Z,999.8
2018-12-07T09:20:29.432Z,999.79
2018-12-07T09:21:39.531Z,999.77
2018-12-07T09:22:49.632Z,999.76
2018-12-07T09:23:59.478Z,999.75
2018-12-07T09:25:09.607Z,999.76
2018-12-07T09:26:19.260Z,999.77
2018-12-07T09:27:29.393Z,999.74
2018-12-07T09:28:39.474Z,999.7
2018-12-07T09:29:49.565Z,999.7
2018-12-07T09:30:59.639Z,999.7
2018-12-07T09:32:09.698Z,999.66
2018-12-07T09:33:19.506Z,999.57
2018-12-07T09:34:29.581Z,999.58
2018-12-07T09:35:39.649Z,999.55
2018-12-07T09:36:49.726Z,999.48
2018-12-07T09:37:59.785Z,999.48
2018-12-07T09:39:16.147Z,999.41
2018-12-07T09:40:26.188Z,999.41
2018-12-07T09:41:36.245Z,999.44
2018-12-07T09:42:46.299Z,999.41
2018-12-07T09:43:56.355Z,999.4
2018-12-07T09:45:06.182Z,999.43
2018-12-07T09:46:16.255Z,999.35
2018-12-07T09:47:26.310Z,999.32
2018-12-07T09:48:36.392Z,999.33
2018-12-07T09:49:46.474Z,999.3
2018-12-07T09:50:56.544Z,999.29
2018-12-07T09:52:06.607Z,999.21
2018-12-07T09:53:16.414Z,999.24
2018-12-07T09:54:26.215Z,999.23
2018-12-07T09:55:36.335Z,999.15
2018-12-07T09:56:46.420Z,999.11
2018-12-07T09:57:56.491Z,999.05
2018-12-07T09:59:06.690Z,998.97
2018-12-07T10:00:16.804Z,999.02
2018-12-07T10:01:26.905Z,998.9
2018-12-07T10:02:37.097Z,998.89
2018-12-07T10:03:47.215Z,998.88
2018-12-07T10:04:57.313Z,998.86
2018-12-07T10:06:07.406Z,998.9
2018-12-07T10:07:17.526Z,998.92
2018-12-07T10:08:27.397Z,998.88
2018-12-07T10:09:37.493Z,998.82
2018-12-07T10:10:47.582Z,998.81
2018-12-07T10:11:57.398Z,998.73
2018-12-07T10:13:08.044Z,998.76
2018-12-07T10:14:18.279Z,998.75
2018-12-07T10:15:28.380Z,998.74
2018-12-07T10:16:38.486Z,998.75
2018-12-07T10:17:48.586Z,998.73
2018-12-07T10:18:58.729Z,998.74
2018-12-07T10:20:08.823Z,998.68
2018-12-07T10:21:18.911Z,998.66
2018-12-07T10:22:29.013Z,998.68
2018-12-07T10:23:40.864Z,998.64
2018-12-07T10:24:50.741Z,998.6
2018-12-07T10:26:00.821Z,998.55
2018-12-07T10:27:10.662Z,998.53
2018-12-07T10:28:20.756Z,998.5
2018-12-07T10:29:30.843Z,998.48
2018-12-07T10:30:41.995Z,998.41
2018-12-07T10:31:51.869Z,998.36
2018-12-07T10:33:01.921Z,998.39
2018-12-07T10:34:12.011Z,998.35
2018-12-07T10:35:21.549Z,998.34
2018-12-07T10:36:32.558Z,998.34
2018-12-07T10:37:42.381Z,998.36
2018-12-07T10:38:52.462Z,998.36
2018-12-07T10:40:02.586Z,998.29
2018-12-07T10:41:12.410Z,998.27
2018-12-07T10:42:22.293Z,998.21
2018-12-07T10:43:32.372Z,998.25
2018-12-07T10:44:42.223Z,998.2
2018-12-07T10:45:52.061Z,998.21
2018-12-07T10:47:02.131Z,998.24
2018-12-07T10:48:12.291Z,998.19
2018-12-07T10:49:22.363Z,998.17
2018-12-07T10:50:33.474Z,998.15
2018-12-07T10:51:43.303Z,998.18
2018-12-07T10:52:53.450Z,998.18
2018-12-07T10:54:03.325Z,998.15
2018-12-07T10:55:13.127Z,998.16
2018-12-07T10:56:23.219Z,998.13
2018-12-07T10:57:33.016Z,998.16
2018-12-07T10:58:43.102Z,998.18
2018-12-07T10:59:52.922Z,998.15
2018-12-07T11:01:03.210Z,998.15
2018-12-07T11:02:13.262Z,998.14
2018-12-07T11:03:23.343Z,998.09
2018-12-07T11:04:33.413Z,998.04
2018-12-07T11:05:43.477Z,998.01
2018-12-07T11:06:53.310Z,997.97
2018-12-07T11:08:05.719Z,997.96
2018-12-07T11:09:15.542Z,997.95
2018-12-07T11:10:25.600Z,997.95
2018-12-07T11:11:35.656Z,997.9
2018-12-07T11:12:45.462Z,997.87
2018-12-07T11:13:55.044Z,997.89
2018-12-07T11:15:05.118Z,997.92
2018-12-07T11:16:14.953Z,997.88
2018-12-07T11:17:25.080Z,997.9
2018-12-07T11:18:35.161Z,997.83
2018-12-07T11:19:45.246Z,997.86
2018-12-07T11:20:55.053Z,997.87
2018-12-07T11:22:05.198Z,997.84
2018-12-07T11:23:15.315Z,997.86
2018-12-07T11:24:25.421Z,997.79
2018-12-07T11:25:35.525Z,997.76
2018-12-07T11:26:45.629Z,997.75
2018-12-07T11:27:55.696Z,997.7
2018-12-07T11:29:08.856Z,997.68
2018-12-07T11:30:18.935Z,997.67
2018-12-07T11:31:29.021Z,997.66
2018-12-07T11:32:39.100Z,997.62
2018-12-07T11:33:49.218Z,997.61
2018-12-07T11:34:59.096Z,997.6
2018-12-07T11:36:10.005Z,997.55
2018-12-07T11:37:20.080Z,997.49
2018-12-07T11:38:31.143Z,997.5
2018-12-07T11:39:42.591Z,997.48
2018-12-07T11:40:52.984Z,997.48
2018-12-07T11:42:03.225Z,997.48
2018-12-07T11:43:13.508Z,997.45
2018-12-07T11:44:23.553Z,997.41
2018-12-07T11:45:33.847Z,997.37
2018-12-07T11:46:45.017Z,997.33
2018-12-07T11:47:55.089Z,997.32
2018-12-07T11:49:05.213Z,997.35
2018-12-07T11:50:15.516Z,997.27
2018-12-07T11:51:27.801Z,997.26
2018-12-07T11:52:37.876Z,997.26
2018-12-07T11:53:47.963Z,997.23
2018-12-07T11:54:58.080Z,997.27
2018-12-07T11:56:07.909Z,997.22
2018-12-07T11:57:18.004Z,997.22
2018-12-07T11:58:28.123Z,997.19
2018-12-07T11:59:38.251Z,997.18
2018-12-07T12:00:48.424Z,997.17
2018-12-07T12:01:58.489Z,997.15
2018-12-07T12:03:08.318Z,997.15
2018-12-07T12:04:18.452Z,997.12
2018-12-07T12:05:28.547Z,997.09
2018-12-07T12:06:38.647Z,997.09
2018-12-07T12:07:48.218Z,997.07
2018-12-07T12:08:58.353Z,997.04
2018-12-07T12:10:10.986Z,996.99
2018-12-07T12:11:20.888Z,997.01
2018-12-07T12:12:30.439Z,996.97
2018-12-07T12:13:40.549Z,996.94
2018-12-07T12:14:50.694Z,996.93
2018-12-07T12:16:01.466Z,996.96
2018-12-07T12:17:11.583Z,996.95
2018-12-07T12:18:21.399Z,996.9
2018-12-07T12:19:31.502Z,996.93
2018-12-07T12:20:41.562Z,996.88
2018-12-07T12:21:51.634Z,996.94
2018-12-07T12:23:01.708Z,996.93
2018-12-07T12:24:11.532Z,996.89
2018-12-07T12:25:21.617Z,996.88
2018-12-07T12:26:31.465Z,996.84
2018-12-07T12:27:41.595Z,996.8
2018-12-07T12:28:51.466Z,996.77
2018-12-07T12:30:03.587Z,996.77
2018-12-07T12:31:13.415Z,996.72
2018-12-07T12:32:23.516Z,996.69
2018-12-07T12:33:33.638Z,996.68
2018-12-07T12:34:43.803Z,996.64
2018-12-07T12:35:53.930Z,996.66
2018-12-07T12:37:03.998Z,996.62
2018-12-07T12:38:14.070Z,996.56
2018-12-07T12:39:24.274Z,996.56
2018-12-07T12:40:34.108Z,996.59
2018-12-07T12:41:46.820Z,996.55
2018-12-07T12:42:57.037Z,996.58
2018-12-07T12:44:06.604Z,996.56
2018-12-07T12:45:16.697Z,996.57
2018-12-07T12:46:26.519Z,996.57
2018-12-07T12:47:36.595Z,996.53
2018-12-07T12:48:46.675Z,996.51
2018-12-07T12:49:56.759Z,996.53
2018-12-07T12:51:06.908Z,996.49
2018-12-07T12:52:16.980Z,996.48
2018-12-07T12:53:26.777Z,996.45
2018-12-07T12:54:36.867Z,996.45
2018-12-07T12:55:46.996Z,996.49
2018-12-07T12:56:57.113Z,996.43
2018-12-07T12:58:06.922Z,996.47
2018-12-07T12:59:17.003Z,996.46
2018-12-07T13:00:27.077Z,996.41
2018-12-07T13:01:37.130Z,996.43
2018-12-07T13:02:46.937Z,996.44
2018-12-07T13:03:57.064Z,996.4
2018-12-07T13:05:07.148Z,996.38
2018-12-07T13:06:17.221Z,996.35
2018-12-07T13:07:27.036Z,996.34
2018-12-07T13:08:37.111Z,996.36
2018-12-07T13:09:47.095Z,996.35
2018-12-07T13:10:57.148Z,996.35
2018-12-07T13:12:07.718Z,996.29
2018-12-07T13:13:17.782Z,996.34
2018-12-07T13:14:27.909Z,996.28
2018-12-07T13:15:38.003Z,996.31
2018-12-07T13:16:48.086Z,996.28
2018-12-07T13:17:57.895Z,996.28
2018-12-07T13:19:09.261Z,996.26
2018-12-07T13:20:19.374Z,996.16
2018-12-07T13:21:29.452Z,996.14
2018-12-07T13:22:39.531Z,996.13
2018-12-07T13:23:49.607Z,996.09
2018-12-07T13:24:59.463Z,995.99
2018-12-07T13:26:09.526Z,996.01
2018-12-07T13:27:19.698Z,995.96
2018-12-07T13:28:29.783Z,995.93
2018-12-07T13:29:39.600Z,995.95
2018-12-07T13:30:49.412Z,995.94
2018-12-07T13:31:59.532Z,995.94
2018-12-07T13:33:09.598Z,995.94
2018-12-07T13:34:19.656Z,995.9
2018-12-07T13:35:29.761Z,995.79
2018-12-07T13:36:39.815Z,995.8
2018-12-07T13:37:49.947Z,995.79
2018-12-07T13:39:00.001Z,995.74
2018-12-07T13:40:10.066Z,995.78
2018-12-07T13:41:20.644Z,995.74
2018-12-07T13:42:30.915Z,995.73
2018-12-07T13:43:41.424Z,995.73
2018-12-07T13:44:52.174Z,995.72
2018-12-07T13:46:03.071Z,995.72
2018-12-07T13:47:14.551Z,995.69
2018-12-07T13:48:25.242Z,995.71
2018-12-07T13:49:35.726Z,995.71
2018-12-07T13:50:45.966Z,995.66
2018-12-07T13:51:56.299Z,995.68
2018-12-07T13:53:07.111Z,995.64
2018-12-07T13:54:17.821Z,995.64
2018-12-07T13:55:28.766Z,995.58
2018-12-07T13:56:39.048Z,995.56
2018-12-07T13:57:49.558Z,995.53
2018-12-07T13:59:03.178Z,995.57
2018-12-07T14:00:13.996Z,995.54
2018-12-07T14:01:24.609Z,995.55
2018-12-07T14:02:35.907Z,995.62
2018-12-07T14:03:46.614Z,995.59
2018-12-07T14:04:56.908Z,995.58
2018-12-07T14:06:07.825Z,995.61
2018-12-07T14:07:17.871Z,995.57
2018-12-07T14:08:28.403Z,995.61
2018-12-07T14:09:39.074Z,995.62
2018-12-07T14:10:49.729Z,995.62
2018-12-07T14:12:00.375Z,995.57
2018-12-07T14:13:10.486Z,995.57
2018-12-07T14:14:20.922Z,995.54
2018-12-07T14:15:31.853Z,995.46
2018-12-07T14:16:42.434Z,995.42
2018-12-07T14:17:52.806Z,995.42
2018-12-07T14:19:03.667Z,995.41
2018-12-07T14:20:14.657Z,995.37
2018-12-07T14:21:25.188Z,995.37
2018-12-07T14:22:35.445Z,995.36
2018-12-07T14:23:46.329Z,995.34
2018-12-07T14:24:56.973Z,995.32
2018-12-07T14:26:07.454Z,995.34
2018-12-07T14:27:18.053Z,995.34
2018-12-07T14:28:28.646Z,995.31
2018-12-07T14:29:39.178Z,995.3
2018-12-07T14:30:49.878Z,995.27
2018-12-07T14:32:00.648Z,995.27
2018-12-07T14:33:11.363Z,995.24
2018-12-07T14:34:22.006Z,995.2
2018-12-07T14:35:32.551Z,995.18
2018-12-07T14:36:42.900Z,995.18
2018-12-07T14:37:53.267Z,995.09
2018-12-07T14:39:03.544Z,995.08
2018-12-07T14:40:14.418Z,995.06
2018-12-07T14:41:25.009Z,995.05
2018-12-07T14:42:35.626Z,995.07
2018-12-07T14:43:46.195Z,995.03
2018-12-07T14:44:56.782Z,994.97
2018-12-07T14:46:07.277Z,994.91
2018-12-07T14:47:17.770Z,994.97
2018-12-07T14:48:28.386Z,994.95
2018-12-07T14:49:38.876Z,994.9
2018-12-07T14:50:49.340Z,994.86
2018-12-07T14:51:59.749Z,994.81
2018-12-07T14:53:10.749Z,994.75
2018-12-07T14:54:21.092Z,994.75